Gardiner, Washington
Current Conditions -  °F | °C
As of 11:53 PM on Friday 19 Dec 2014 (Local Time) from KCLM Reporting Station
Broken Clouds Broken Clouds  
Wind Chill: 42°   Ceiling: 11000
Heat Index: 42°   Visibility: 10mi
Dew Point: 40°   Wind: 0mph
Humidity: 92%   Direction: NA
Pressure: 29.77"   Gusts: NA
Location:  48.0015°N, 123.09°W
Report Text: KCLM 200753Z AUTO 00000KT 10SM FEW060 SCT090 BKN110 06/04 A2977 RMK AO2 SLP082 T00560044 401000033 TSNO $
Loading
Personal Weather Stations






























Interactive Weather Map New forecast layout! Learn more

10-Day Weather Forecast

Advertisements
Track Severe Weather on mobile